createdAt,value
2022-11-29T00:00:02.730Z,111.50
2022-11-29T00:05:07.778Z,172.90
2022-11-29T00:10:10.423Z,180.45
2022-11-29T00:15:12.834Z,158.73
2022-11-29T00:20:16.623Z,292.27
2022-11-29T00:25:18.999Z,193.90
2022-11-29T00:30:21.780Z,265.40
2022-11-29T00:35:25.442Z,304.93
2022-11-29T00:40:27.874Z,382.50
2022-11-29T00:45:30.282Z,391.40
2022-11-29T00:50:33.968Z,375.65
2022-11-29T00:55:36.342Z,464.75
2022-11-29T01:00:38.716Z,483.40
2022-11-29T01:05:42.875Z,432.30
2022-11-29T01:10:45.653Z,380.00
2022-11-29T01:15:55.790Z,490.27
2022-11-29T01:21:00.726Z,448.17
2022-11-29T01:26:04.407Z,461.15
2022-11-29T01:31:07.454Z,415.65
2022-11-29T01:36:13.477Z,437.70
2022-11-29T01:41:16.787Z,377.95
2022-11-29T01:46:19.173Z,289.95
2022-11-29T01:51:23.116Z,472.95
2022-11-29T01:56:25.730Z,395.17
2022-11-29T02:01:28.190Z,435.77
2022-11-29T02:06:32.021Z,333.30
2022-11-29T02:11:49.119Z,345.73
2022-11-29T02:16:56.688Z,271.50
2022-11-29T02:22:03.620Z,191.02
2022-11-29T02:27:17.751Z,219.93
2022-11-29T02:32:40.996Z,243.35
2022-11-29T02:37:57.775Z,245.65
2022-11-29T02:43:13.072Z,193.90
2022-11-29T02:48:30.683Z,194.43
2022-11-29T02:53:36.434Z,201.90
2022-11-29T02:58:42.831Z,200.77
2022-11-29T03:03:47.492Z,206.90
2022-11-29T03:08:55.204Z,225.82
2022-11-29T03:14:04.802Z,216.35
2022-11-29T03:19:20.623Z,231.60
2022-11-29T03:24:29.749Z,229.75
2022-11-29T03:29:37.279Z,196.27
2022-11-29T03:34:51.762Z,278.13
2022-11-29T03:40:03.282Z,263.38
2022-11-29T03:45:08.660Z,245.00
2022-11-29T03:50:14.100Z,177.10
2022-11-29T03:55:25.840Z,172.07
2022-11-29T04:00:33.711Z,157.30
2022-11-29T04:05:53.687Z,223.15
2022-11-29T04:11:17.883Z,215.43
2022-11-29T04:16:26.273Z,197.45
2022-11-29T04:21:32.930Z,235.20
2022-11-29T04:26:42.790Z,252.18
2022-11-29T04:31:55.597Z,287.23
2022-11-29T04:37:09.799Z,252.25
2022-11-29T04:42:24.418Z,312.50
2022-11-29T04:47:40.071Z,264.92
2022-11-29T04:52:57.552Z,359.77
2022-11-29T04:58:05.789Z,258.05
2022-11-29T05:03:12.067Z,227.95
2022-11-29T05:08:20.799Z,242.93
2022-11-29T05:13:29.005Z,339.52
2022-11-29T05:18:40.572Z,296.80
2022-11-29T05:23:49.677Z,251.07
2022-11-29T05:28:57.654Z,277.98
2022-11-29T05:34:14.965Z,195.10
2022-11-29T05:39:27.703Z,223.70
2022-11-29T05:44:34.533Z,233.32
2022-11-29T05:49:40.136Z,248.35
2022-11-29T05:54:45.746Z,313.58
2022-11-29T05:59:50.692Z,125.80
2022-11-29T06:05:00.797Z,215.15
2022-11-29T06:10:05.414Z,231.27
2022-11-29T06:15:28.947Z,221.77
2022-11-29T06:20:38.397Z,228.48
2022-11-29T06:25:47.361Z,282.00
2022-11-29T06:30:56.557Z,291.45
2022-11-29T06:36:08.512Z,359.23
2022-11-29T06:41:14.767Z,331.92
2022-11-29T06:46:24.124Z,214.27
2022-11-29T06:51:29.833Z,270.70
2022-11-29T06:56:40.725Z,260.83
2022-11-29T07:01:46.912Z,302.73
2022-11-29T07:06:50.635Z,299.85
2022-11-29T07:11:53.330Z,266.93
2022-11-29T07:17:01.945Z,288.50
2022-11-29T07:22:09.813Z,264.33
2022-11-29T07:27:16.703Z,311.45
2022-11-29T07:32:23.641Z,243.40
2022-11-29T07:37:37.778Z,287.10
2022-11-29T07:42:44.672Z,323.23
2022-11-29T07:47:48.787Z,304.52
2022-11-29T07:52:51.168Z,361.60
2022-11-29T07:57:53.881Z,262.50
2022-11-29T08:02:57.604Z,304.83
2022-11-29T08:08:00.332Z,252.50
2022-11-29T08:13:02.701Z,214.27
2022-11-29T08:18:06.512Z,339.95
2022-11-29T08:23:09.855Z,237.10
2022-11-29T08:28:12.200Z,225.10
2022-11-29T08:33:15.909Z,249.23
2022-11-29T08:38:18.278Z,294.90
2022-11-29T08:43:20.650Z,319.90
2022-11-29T08:48:24.572Z,208.75
2022-11-29T08:53:51.470Z,345.05
2022-11-29T08:58:53.817Z,299.08
2022-11-29T09:04:02.478Z,188.00
2022-11-29T09:09:05.140Z,204.93
2022-11-29T09:14:15.752Z,261.13
2022-11-29T09:19:19.627Z,227.60
2022-11-29T09:24:22.002Z,253.70
2022-11-29T09:29:24.399Z,223.18
2022-11-29T09:34:28.486Z,244.10
2022-11-29T09:39:30.874Z,280.15
2022-11-29T09:44:39.555Z,229.02
2022-11-29T09:49:56.171Z,160.10
2022-11-29T09:55:03.980Z,116.70
2022-11-29T10:00:07.792Z,111.15
2022-11-29T10:05:16.210Z,121.10
2022-11-29T10:10:22.041Z,117.88
2022-11-29T10:15:27.286Z,92.03
2022-11-29T10:20:37.959Z,79.47
2022-11-29T10:25:45.287Z,70.32
2022-11-29T10:30:48.185Z,64.40
2022-11-29T10:35:53.930Z,63.10
2022-11-29T10:40:58.914Z,71.80
2022-11-29T10:46:02.452Z,77.13
2022-11-29T10:51:15.739Z,73.88
2022-11-29T10:56:22.285Z,93.87
2022-11-29T11:01:26.061Z,62.45
2022-11-29T11:06:43.094Z,76.63
2022-11-29T11:11:50.929Z,69.82
2022-11-29T11:16:53.946Z,77.68
2022-11-29T11:21:58.367Z,61.25
2022-11-29T11:27:01.331Z,50.72
2022-11-29T11:32:04.061Z,55.00
2022-11-29T11:37:19.023Z,58.63
2022-11-29T11:42:42.596Z,52.90
2022-11-29T11:47:46.116Z,49.43
2022-11-29T11:58:03.334Z,43.35
2022-11-29T12:03:21.057Z,32.75
2022-11-29T12:08:24.921Z,35.63
2022-11-29T12:13:31.353Z,36.50
2022-11-29T12:18:37.904Z,31.33
2022-11-29T12:23:41.443Z,39.33
2022-11-29T12:28:45.842Z,35.45
2022-11-29T12:33:50.789Z,36.83
2022-11-29T12:39:00.512Z,39.40
2022-11-29T12:44:08.647Z,39.70
2022-11-29T12:49:18.189Z,39.00
2022-11-29T12:54:38.512Z,39.72
2022-11-29T12:59:49.937Z,33.90
2022-11-29T13:04:59.736Z,35.10
2022-11-29T13:10:12.493Z,28.58
2022-11-29T13:15:20.193Z,30.65
2022-11-29T13:20:27.550Z,24.35
2022-11-29T13:25:31.326Z,25.98
2022-11-29T13:30:36.561Z,27.65
2022-11-29T13:35:43.054Z,24.88
2022-11-29T13:40:52.492Z,31.35
2022-11-29T13:46:00.531Z,34.20
2022-11-29T13:51:22.980Z,30.10
2022-11-29T13:56:49.239Z,30.45
2022-11-29T14:01:54.760Z,32.28
2022-11-29T14:07:04.807Z,29.23
2022-11-29T14:12:18.758Z,34.08
2022-11-29T14:22:24.786Z,31.60
2022-11-29T14:27:46.032Z,28.20
2022-11-29T14:32:52.871Z,32.15
2022-11-29T14:38:02.478Z,34.97
2022-11-29T14:43:15.675Z,34.42
2022-11-29T14:48:26.397Z,31.37
2022-11-29T14:53:33.740Z,46.67
2022-11-29T14:58:36.143Z,34.42
2022-11-29T15:03:43.022Z,46.08
2022-11-29T15:08:51.859Z,37.00
2022-11-29T15:13:56.013Z,36.50
2022-11-29T15:19:08.092Z,38.47
2022-11-29T15:24:13.416Z,41.05
2022-11-29T15:29:17.016Z,38.08
2022-11-29T15:34:20.677Z,47.42
2022-11-29T15:39:28.733Z,48.92
2022-11-29T15:44:32.836Z,35.67
2022-11-29T15:49:35.178Z,34.05
2022-11-29T15:54:40.884Z,31.98
2022-11-29T15:59:44.803Z,44.58
2022-11-29T16:04:47.750Z,48.53
2022-11-29T16:09:55.048Z,53.78
2022-11-29T16:14:58.391Z,66.47
2022-11-29T16:20:23.392Z,55.42
2022-11-29T16:25:27.457Z,47.38
2022-11-29T16:30:31.011Z,67.88
2022-11-29T16:35:33.918Z,51.08
2022-11-29T16:40:37.931Z,59.47
2022-11-29T16:45:41.232Z,65.70
2022-11-29T16:50:43.660Z,72.00
2022-11-29T16:55:47.348Z,76.72
2022-11-29T17:00:49.795Z,69.18
2022-11-29T17:05:52.180Z,59.00
2022-11-29T17:10:55.958Z,56.10
2022-11-29T17:15:58.403Z,68.75
2022-11-29T17:21:00.812Z,79.47
2022-11-29T17:26:04.611Z,72.13
2022-11-29T17:31:08.950Z,67.57
2022-11-29T17:36:12.570Z,82.82
2022-11-29T17:41:18.102Z,74.03
2022-11-29T17:46:21.645Z,81.30
2022-11-29T17:56:48.649Z,86.88
2022-11-29T18:01:51.093Z,90.75
2022-11-29T18:06:53.493Z,101.30
2022-11-29T18:11:57.188Z,112.53
2022-11-29T18:16:59.621Z,122.43
2022-11-29T18:22:05.760Z,117.93
2022-11-29T18:27:09.518Z,108.32
2022-11-29T18:32:11.905Z,109.97
2022-11-29T18:37:23.370Z,127.63
2022-11-29T18:42:38.755Z,133.48
2022-11-29T18:47:41.122Z,124.30
2022-11-29T18:52:43.469Z,140.55
2022-11-29T18:57:50.163Z,173.77
2022-11-29T19:02:53.978Z,166.18
2022-11-29T19:07:56.442Z,151.27
2022-11-29T19:13:00.427Z,159.30
2022-11-29T19:18:03.875Z,144.57
2022-11-29T19:28:14.005Z,96.13
2022-11-29T19:33:16.766Z,58.67
2022-11-29T19:38:19.153Z,56.58
2022-11-29T19:43:22.866Z,54.92
2022-11-29T19:48:25.370Z,41.72
2022-11-29T19:53:28.108Z,42.85
2022-11-29T19:58:32.824Z,39.10
2022-11-29T20:03:35.602Z,36.25
2022-11-29T20:08:38.044Z,40.07
2022-11-29T20:13:43.016Z,37.88
2022-11-29T20:18:50.727Z,34.58
2022-11-29T20:23:55.851Z,37.78
2022-11-29T20:28:59.852Z,34.53
2022-11-29T20:34:03.705Z,39.50
2022-11-29T20:39:11.565Z,32.55
2022-11-29T20:44:34.347Z,33.45
2022-11-29T20:49:38.398Z,36.13
2022-11-29T20:54:40.786Z,43.72
2022-11-29T20:59:43.216Z,37.78
2022-11-29T21:04:47.371Z,37.63
2022-11-29T21:09:50.001Z,36.70
2022-11-29T21:14:52.812Z,35.38
2022-11-29T21:19:56.870Z,36.13
2022-11-29T21:25:05.085Z,36.60
2022-11-29T21:30:14.210Z,37.15
2022-11-29T21:35:18.339Z,37.90
2022-11-29T21:40:20.921Z,37.90
2022-11-29T21:45:23.264Z,36.37
2022-11-29T21:50:27.240Z,37.25
2022-11-29T21:55:32.139Z,46.20
2022-11-29T22:00:37.570Z,36.33
2022-11-29T22:05:41.770Z,41.50
2022-11-29T22:10:44.154Z,41.80
2022-11-29T22:15:46.560Z,34.15
2022-11-29T22:20:50.322Z,37.15
2022-11-29T22:25:52.720Z,39.30
2022-11-29T22:31:01.892Z,38.00
2022-11-29T22:36:06.864Z,37.15
2022-11-29T22:41:10.756Z,40.67
2022-11-29T22:46:14.268Z,41.03
2022-11-29T22:51:18.825Z,42.33
2022-11-29T22:56:22.008Z,38.50
2022-11-29T23:01:25.898Z,38.55
2022-11-29T23:06:31.092Z,42.75
2022-11-29T23:11:33.484Z,44.95
2022-11-29T23:16:35.952Z,39.33
2022-11-29T23:21:40.622Z,44.58
2022-11-29T23:26:44.553Z,44.58
2022-11-29T23:31:47.531Z,50.15
2022-11-29T23:36:53.067Z,44.28
2022-11-29T23:41:55.778Z,44.83
2022-11-29T23:46:58.153Z,45.50
2022-11-29T23:52:01.861Z,47.55
2022-11-29T23:57:04.199Z,44.22
